Latest Weather Observations for Toowoomba

IDQ60901

Issued at 10:25 am EST Wednesday 24 September 2014 (issued every 10 minutes, with the page automatically refreshed every 10 minutes)

About weather observations | Map of Brisbane area stations | Latest observations for Brisbane area | Other Formats
Station Details ID: 041529 Name: TOOWOOMBA AIRPORT Lat: -27.54 Lon: 151.91 Height: 640.9 m
Data from the previous 72 hours. | See also: Recent months at Toowoomba
Date/Time
EST
Tmp

°C
App
Tmp
°C
Dew
Point
°C
Rel
Hum
%
Delta-T

°C
Wind Press
QNH
hPa
Press
MSL
hPa
Rain
since
9 am
mm
Dir
 
Spd
km/h
Gust
km/h
Spd
kts
Gust
kts
24/10:00am 16.6 11.6 10.9 69 3.2 ENE 28 35 15 19 1026.3 - 0.0
24/09:30am 16.1 11.0 10.6 70 3.0 ENE 28 35 15 19 1026.4 - 0.0
24/09:06am - - - - - - - - - - - - -
24/09:00am 15.9 11.2 10.7 71 2.8 ENE 26 - 14 - - 1025.1 -
24/08:30am 14.2 9.6 11.0 81 1.7 E 26 33 14 18 1026.7 - 0.0
24/08:00am 13.3 9.3 10.5 83 1.5 E 22 28 12 15 1026.5 - 0.0
24/07:30am 13.4 9.1 10.9 85 1.4 E 24 32 13 17 1026.1 - 0.0
24/07:00am 12.7 8.8 10.8 88 1.0 E 22 28 12 15 1026.0 - 0.0
24/06:30am 12.0 8.9 10.2 89 1.0 E 17 24 9 13 1026.0 - 0.0
24/06:00am 11.3 7.6 9.6 89 0.9 E 19 24 10 13 1025.6 1023.9 0.0
24/05:49am 11.4 7.6 9.8 90 0.8 E 20 28 11 15 1025.6 - 0.0
24/05:30am 11.0 6.4 9.6 91 0.7 E 24 30 13 16 1025.4 - 0.0
24/05:22am 11.1 6.5 9.5 90 0.8 E 24 30 13 16 1025.5 - 0.0
24/05:00am 11.2 7.0 9.9 92 0.7 E 22 26 12 14 1025.5 - 0.0
24/04:58am 11.2 7.0 9.9 92 0.7 E 22 26 12 14 1025.5 - 0.0
24/04:39am 11.0 7.2 9.8 92 0.6 E 20 24 11 13 1025.4 - 0.0
24/04:30am 11.0 7.1 9.6 91 0.7 E 20 24 11 13 1025.4 - 0.0
24/04:00am 11.4 7.8 10.0 91 0.7 E 19 20 10 11 1025.5 - 0.0
24/03:31am 11.1 7.9 9.9 92 0.6 ENE 17 22 9 12 1025.6 - 0.0
24/03:30am 11.1 7.9 9.9 92 0.6 ENE 17 22 9 12 1025.6 - 0.0
24/03:24am 10.8 7.9 9.6 92 0.6 E 15 19 8 10 1025.6 - 0.0
24/03:00am 11.4 8.2 9.8 90 0.8 E 17 20 9 11 1026.0 1024.4 0.0
24/02:30am 11.5 9.5 10.1 91 0.7 E 11 15 6 8 1026.3 - 0.0
24/02:00am 11.2 8.3 9.6 90 0.8 E 15 19 8 10 1026.4 - 0.0
24/01:58am 11.2 8.3 9.8 91 0.7 E 15 19 8 10 1026.5 - 0.0
24/01:30am 10.6 6.8 9.2 91 0.7 E 19 22 10 12 1026.6 - 0.0
24/01:00am 10.4 6.6 9.0 91 0.7 E 19 20 10 11 1026.7 - 0.0
24/12:30am 10.5 6.6 8.8 89 0.9 E 19 20 10 11 1027.2 - 0.0
24/12:00am 9.6 5.8 7.7 88 0.9 E 17 19 9 10 1027.3 1025.6 0.0
 
Date/Time
EST
Tmp

°C
App
Tmp
°C
Dew
Point
°C
Rel
Hum
%
Delta-T

°C
Wind Press
QNH
hPa
Press
MSL
hPa
Rain
since
9 am
mm
Dir
 
Spd
km/h
Gust
km/h
Spd
kts
Gust
kts
23/11:30pm 11.4 7.3 8.8 84 1.3 E 20 26 11 14 1027.6 - 0.0
23/11:00pm 11.5 7.9 8.5 82 1.5 E 17 20 9 11 1028.0 - 0.0
23/10:30pm 11.7 7.5 8.2 79 1.8 E 20 24 11 13 1028.2 - 0.0
23/10:00pm 11.8 7.8 8.1 78 1.9 E 19 24 10 13 1028.3 - 0.0
23/09:30pm 12.2 8.1 7.7 74 2.3 ENE 19 24 10 13 1028.4 - 0.0
23/09:00pm 12.3 8.4 7.2 71 2.5 E 17 22 9 12 1028.2 1026.6 0.0
23/08:30pm 13.0 9.4 6.8 66 3.1 ENE 15 19 8 10 1028.1 - 0.0
23/08:00pm 13.4 9.3 6.3 62 3.5 NE 17 22 9 12 1028.1 - 0.0
23/07:30pm 13.7 8.9 5.6 58 3.9 ENE 20 26 11 14 1027.4 - 0.0
23/07:00pm 14.6 10.3 5.1 53 4.6 ENE 17 22 9 12 1027.5 - 0.0
23/06:30pm 15.1 10.1 4.5 49 5.1 E 20 30 11 16 1027.1 - 0.0
23/06:00pm 15.6 9.8 4.6 48 5.3 E 24 32 13 17 1026.7 1025.1 0.0
23/05:30pm 16.5 11.0 6.1 50 5.2 E 24 32 13 17 1026.5 - 0.0
23/05:00pm 17.3 12.0 6.8 50 5.4 E 24 32 13 17 1026.3 - 0.0
23/04:30pm 18.0 12.7 6.8 48 5.8 ENE 24 30 13 16 1026.1 - 0.0
23/04:00pm 18.5 12.5 7.0 47 6.0 E 28 35 15 19 1026.1 - 0.0
23/03:30pm 18.8 13.1 8.2 50 5.6 E 28 39 15 21 1026.2 - 0.0
23/03:00pm 18.1 12.0 8.1 52 5.3 E 30 44 16 24 1026.2 1024.6 0.0
23/02:30pm 19.1 13.5 8.7 51 5.6 E 28 41 15 22 1026.3 - 0.0
23/02:00pm 18.5 12.0 6.7 46 6.1 ENE 30 41 16 22 1026.6 - 0.0
23/01:30pm 18.9 12.7 8.0 49 5.8 E 30 43 16 23 1027.0 - 0.0
23/01:00pm 19.4 12.7 7.5 46 6.3 E 32 46 17 25 1027.4 - 0.0
23/12:30pm 19.0 12.4 6.1 43 6.6 E 30 43 16 23 1027.6 - 0.0
23/12:21pm 18.4 12.1 7.2 48 5.8 E 30 48 16 26 1027.9 - 0.0
23/12:00pm 17.6 10.7 7.1 50 5.4 E 33 48 18 26 1028.2 1026.6 0.0
23/11:30am 18.4 12.0 8.4 52 5.3 E 32 41 17 22 1028.7 - 0.0
23/11:00am 17.5 10.4 8.1 54 5.0 E 35 46 19 25 1029.1 - 0.0
23/10:30am 17.0 10.4 8.7 58 4.4 E 33 43 18 23 1029.6 - 0.0
23/10:00am 15.4 7.8 7.4 59 4.1 E 37 46 20 25 1029.7 - 0.0
23/09:58am 16.0 8.4 7.7 58 4.3 E 37 44 20 24 1029.7 - 0.0
23/09:45am 16.0 8.9 8.0 59 4.2 ENE 35 43 19 23 1029.7 - 0.0
23/09:30am 14.9 7.3 7.5 61 3.8 E 37 50 20 27 1029.7 - 0.0
23/09:00am 15.2 7.0 8.2 63 3.6 E 41 54 22 29 1029.5 1027.9 0.2
23/08:30am 14.7 7.1 7.7 63 3.6 E 37 50 20 27 1029.5 - 0.2
23/08:00am 13.7 6.9 7.9 68 3.0 E 33 43 18 23 1029.3 - 0.2
23/07:30am 12.7 6.2 8.0 73 2.4 E 32 46 17 25 1029.0 - 0.2
23/07:00am 12.3 7.0 8.4 77 2.0 E 26 37 14 20 1028.8 - 0.2
23/06:30am 11.7 6.8 8.4 80 1.7 E 24 32 13 17 1028.3 - 0.2
23/06:00am 11.2 5.1 8.2 82 1.5 ESE 30 39 16 21 1027.9 1026.3 0.2
23/05:30am 11.0 7.5 8.9 87 1.1 E 17 22 9 12 1028.0 - 0.2
23/05:00am 11.3 8.3 9.2 87 1.1 E 15 19 8 10 1028.0 - 0.2
23/04:30am 11.4 8.4 9.1 86 1.2 E 15 20 8 11 1027.9 - 0.2
23/04:00am 11.6 8.2 9.2 85 1.2 ESE 17 22 9 12 1027.5 - 0.2
23/03:30am 11.7 7.7 9.1 84 1.3 ESE 20 26 11 14 1027.4 - 0.2
23/03:00am 11.6 7.7 9.3 86 1.2 ESE 20 26 11 14 1027.5 1025.9 0.2
23/02:30am 11.5 8.1 9.2 86 1.2 ESE 17 24 9 13 1027.6 - 0.2
23/02:00am 11.3 8.8 9.6 89 0.9 E 13 19 7 10 1028.0 - 0.2
23/01:30am 11.4 9.3 9.8 90 0.8 SE 11 17 6 9 1028.2 - 0.2
23/01:00am 11.2 9.6 10.1 93 0.6 ESE 9 15 5 8 1028.4 - 0.2
23/12:30am 11.1 9.1 10.3 95 0.4 ESE 11 15 6 8 1028.9 - 0.2
23/12:00am 11.0 9.0 10.2 95 0.4 ESE 11 17 6 9 1029.0 1027.4 0.2
 
Date/Time
EST
Tmp

°C
App
Tmp
°C
Dew
Point
°C
Rel
Hum
%
Delta-T

°C
Wind Press
QNH
hPa
Press
MSL
hPa
Rain
since
9 am
mm
Dir
 
Spd
km/h
Gust
km/h
Spd
kts
Gust
kts
22/11:30pm 11.0 8.2 10.1 94 0.5 E 15 17 8 9 1029.1 - 0.2
22/11:16pm 11.0 8.3 10.2 95 0.4 ESE 15 20 8 11 1029.3 - 0.2
22/11:11pm 11.0 7.9 10.2 95 0.4 ESE 17 22 9 12 1029.3 - 0.2
22/11:00pm 11.1 7.4 10.3 95 0.4 E 20 28 11 15 1029.3 - 0.2
22/10:30pm 11.4 6.2 10.1 92 0.7 E 28 39 15 21 1029.5 - 0.2
22/10:26pm 11.5 6.2 9.9 90 0.8 E 28 39 15 21 1029.6 - 0.0
22/10:00pm 11.9 7.4 10.0 88 1.0 E 24 33 13 18 1029.8 - 0.0
22/09:50pm 11.9 7.8 10.1 89 1.0 E 22 35 12 19 1029.6 - 0.0
22/09:31pm 11.8 6.6 10.2 90 0.8 E 28 33 15 18 1029.5 - 0.0
22/09:30pm 11.8 7.0 10.2 90 0.8 E 26 33 14 18 1029.5 - 0.0
22/09:28pm 11.9 7.1 10.3 90 0.9 E 26 33 14 18 1029.5 - 0.0
22/09:17pm 12.0 6.4 10.1 88 1.0 E 30 43 16 23 1029.5 - 0.0
22/09:00pm 12.1 6.2 10.5 90 0.8 E 32 44 17 24 1029.2 1027.6 0.0
22/08:37pm 12.3 6.4 10.5 89 1.0 E 32 41 17 22 1029.2 - 0.0
22/08:31pm 12.8 7.2 10.2 84 1.4 E 30 39 16 21 1029.3 - 0.0
22/08:30pm 12.8 7.2 10.2 84 1.4 E 30 39 16 21 1029.2 - 0.0
22/08:25pm 12.8 7.6 10.2 84 1.4 E 28 39 15 21 1029.2 - 0.0
22/08:08pm 12.9 8.0 10.1 83 1.5 E 26 43 14 23 1029.1 - 0.0
22/08:00pm 12.9 8.3 9.7 81 1.7 E 24 33 13 18 1029.0 - 0.0
22/07:30pm 12.9 8.5 9.0 77 2.0 E 22 30 12 16 1028.9 - 0.0
22/07:00pm 13.4 8.3 9.3 76 2.2 E 26 35 14 19 1028.3 - 0.0
22/06:30pm 13.4 8.4 9.6 78 2.0 E 26 35 14 19 1027.9 - 0.0
22/06:00pm 13.4 8.9 10.0 80 1.8 ESE 24 32 13 17 1027.7 1026.1 0.0
22/05:30pm 14.0 9.4 9.8 76 2.2 ESE 24 30 13 16 1027.6 - 0.0
22/05:00pm 14.5 8.8 9.9 74 2.5 ESE 30 43 16 23 1027.3 - 0.0
22/04:44pm 15.0 9.7 10.0 72 2.7 ESE 28 46 15 25 1027.2 - 0.0
22/04:30pm 15.0 10.1 9.8 71 2.8 ESE 26 35 14 19 1027.1 - 0.0
22/04:00pm 14.8 9.1 9.8 72 2.7 ESE 30 43 16 23 1026.7 - 0.0
22/03:30pm 15.1 9.0 9.9 71 2.8 ESE 32 43 17 23 1026.5 - 0.0
22/03:00pm 16.5 9.4 8.2 58 4.3 E 35 44 19 24 1026.4 1024.8 0.0
22/02:30pm 16.9 10.6 8.8 59 4.3 E 32 43 17 23 1026.5 - 0.0
22/02:00pm 17.8 11.4 9.2 57 4.6 E 33 46 18 25 1026.8 - 0.0
22/01:30pm 16.5 11.0 9.0 61 4.0 E 28 39 15 21 1027.2 - 0.0
22/01:00pm 16.6 10.4 10.0 65 3.6 E 33 44 18 24 1027.5 - 0.0
22/12:30pm 15.5 9.8 9.8 69 3.1 E 30 41 16 22 1027.8 - 0.0
22/12:00pm 16.1 10.7 9.5 65 3.5 E 28 44 15 24 1028.1 1026.5 0.0
22/11:30am 15.5 9.4 9.8 69 3.1 E 32 44 17 24 1028.5 - 0.0
22/11:00am 15.1 8.9 9.5 69 3.0 E 32 43 17 23 1028.9 - 0.0
22/10:30am 15.1 8.8 9.7 70 2.9 E 33 46 18 25 1029.1 - 0.0
22/10:00am 14.9 8.8 9.9 72 2.7 E 32 43 17 23 1028.9 - 0.0
22/09:30am 14.6 7.2 9.8 73 2.6 E 39 50 21 27 1028.5 - 0.0
22/09:00am 14.3 7.1 9.3 72 2.6 E 37 50 20 27 1028.4 1026.8 2.8
22/08:30am 13.7 6.5 9.0 73 2.5 E 37 50 20 27 1028.5 - 2.8
22/08:00am 12.9 7.5 9.4 79 1.8 E 28 35 15 19 1028.3 - 2.8
22/07:30am 12.3 7.5 9.0 80 1.7 E 24 33 13 18 1028.0 - 2.8
22/07:00am 11.6 6.0 8.8 83 1.4 E 28 39 15 21 1027.4 - 2.8
22/06:30am 10.8 6.7 8.6 86 1.1 ESE 20 28 11 15 1027.2 - 2.8
22/06:00am 10.6 6.7 8.5 87 1.1 E 19 28 10 15 1026.8 1025.2 2.6
22/05:30am 10.6 6.7 8.7 88 1.0 E 19 28 10 15 1026.6 - 2.6
22/05:00am 10.5 6.4 8.8 89 0.9 E 20 30 11 16 1026.5 - 2.6
22/04:30am 10.7 6.7 9.1 90 0.8 E 20 32 11 17 1026.3 - 2.6
22/04:00am 10.6 6.3 9.2 91 0.7 ESE 22 32 12 17 1025.9 - 2.6
22/03:30am 10.6 5.6 9.4 92 0.6 E 26 39 14 21 1025.4 - 2.6
22/03:00am 10.6 6.4 9.7 94 0.5 ESE 22 30 12 16 1025.7 1024.0 2.6
22/02:30am 10.6 6.8 9.8 95 0.4 ESE 20 28 11 15 1026.2 - 2.6
22/02:00am 10.6 8.2 10.0 96 0.3 ESE 13 19 7 10 1027.2 - 2.6
22/01:58am 10.6 7.8 10.0 96 0.3 ESE 15 20 8 11 1027.2 - 2.6
22/01:30am 10.7 8.3 10.1 96 0.3 E 13 19 7 10 1027.7 - 2.6
22/01:00am 10.7 8.0 10.2 97 0.3 E 15 20 8 11 1027.9 - 2.6
22/12:30am 10.6 7.4 10.1 97 0.3 E 17 24 9 13 1028.1 - 2.6
22/12:23am 10.6 6.9 10.1 97 0.3 ESE 20 30 11 16 1028.1 - 2.6
22/12:00am 10.7 6.2 10.2 97 0.3 ESE 24 35 13 19 1028.3 1026.7 2.6
 
Date/Time
EST
Tmp

°C
App
Tmp
°C
Dew
Point
°C
Rel
Hum
%
Delta-T

°C
Wind Press
QNH
hPa
Press
MSL
hPa
Rain
since
9 am
mm
Dir
 
Spd
km/h
Gust
km/h
Spd
kts
Gust
kts
21/11:30pm 10.9 6.5 10.3 96 0.3 ESE 24 35 13 19 1028.8 - 2.2
21/11:00pm 11.2 7.6 10.4 95 0.4 E 20 30 11 16 1028.5 - 1.8
21/10:51pm 11.3 7.9 10.5 95 0.4 E 19 24 10 13 1028.7 - 1.4
21/10:42pm 11.3 7.9 10.5 95 0.4 E 19 24 10 13 1028.5 - 1.2
21/10:30pm 11.4 7.8 10.6 95 0.4 E 20 26 11 14 1028.4 - 1.2
21/10:00pm 11.7 8.7 10.8 94 0.5 E 17 24 9 13 1029.0 - 0.8
21/09:46pm 11.8 8.2 10.5 92 0.7 E 20 28 11 15 1028.9 - 0.8
21/09:30pm 12.0 8.4 10.4 90 0.9 E 20 28 11 15 1028.8 - 0.2
21/09:00pm 12.0 8.4 10.7 92 0.7 ESE 20 26 11 14 1028.4 1026.8 0.2
21/08:30pm 12.3 8.7 10.7 90 0.9 E 20 32 11 17 1028.3 - 0.2
21/08:00pm 12.3 8.7 10.5 89 1.0 E 20 30 11 16 1028.1 - 0.2
21/07:30pm 12.4 8.8 10.6 89 1.0 E 20 28 11 15 1028.0 - 0.2
21/07:00pm 12.0 8.4 10.7 92 0.7 E 20 28 11 15 1027.7 - 0.0
21/06:30pm 12.5 6.8 9.9 84 1.4 ESE 30 46 16 25 1027.2 - 0.0
21/06:04pm 14.1 8.5 8.9 71 2.7 E 28 48 15 26 1026.4 - 0.0
21/06:00pm 14.8 9.9 8.3 65 3.4 E 24 32 13 17 1026.3 1024.7 0.0
21/05:30pm 14.6 10.0 8.1 65 3.4 E 22 33 12 18 1025.8 - 0.0
21/05:00pm 15.2 9.8 8.2 63 3.6 E 26 35 14 19 1025.4 - 0.0
21/04:30pm 14.9 9.0 9.1 68 3.1 E 30 37 16 20 1024.9 - 0.0
21/04:00pm 16.8 11.6 7.4 54 4.9 E 24 33 13 18 1024.8 - 0.0
21/03:30pm 17.2 11.6 7.3 52 5.1 E 26 35 14 19 1024.9 - 0.0
21/03:00pm 17.7 13.0 7.7 52 5.2 E 22 33 12 18 1024.8 1023.2 0.0
21/02:30pm 17.5 11.9 7.3 51 5.3 E 26 35 14 19 1025.0 - 0.0
21/02:00pm 17.0 11.3 6.5 50 5.3 E 26 37 14 20 1024.9 - 0.0
21/01:30pm 17.4 11.8 7.2 51 5.3 E 26 39 14 21 1025.1 - 0.0
21/01:00pm 17.1 10.8 7.2 52 5.1 E 30 41 16 22 1025.3 - 0.0
21/12:30pm 16.6 9.6 7.0 53 4.9 E 33 41 18 22 1025.5 - 0.0
21/12:00pm 16.7 9.4 7.4 54 4.8 E 35 46 19 25 1025.7 1024.0 0.0
21/11:30am 16.8 9.5 7.2 53 4.9 E 35 46 19 25 1026.1 - 0.0
21/11:00am 17.2 10.1 8.1 55 4.8 E 35 48 19 26 1026.6 - 0.0
21/10:30am 16.5 8.9 7.4 55 4.7 E 37 50 20 27 1026.8 - 0.0

Latest Capital City Observations: Canberra | Sydney | Melbourne | Brisbane | Adelaide | Perth | Hobart | Darwin

Other Formats:

Comma delimited format used in spreadsheet applications
http://www.bom.gov.au/fwo/IDQ60901/IDQ60901.95551.axf

JavaScript Object Notation format (JSON) in row-major order
http://www.bom.gov.au/fwo/IDQ60901/IDQ60901.95551.json